sensor_id;sensor_type;location;lat;lon;timestamp;temperature;humidity
843;DHT22;407;48.884;9.126;2023-07-13T00:00:23;20.80;1.00
843;DHT22;407;48.884;9.126;2023-07-13T00:02:48;20.70;1.00
843;DHT22;407;48.884;9.126;2023-07-13T00:05:14;20.70;1.00
843;DHT22;407;48.884;9.126;2023-07-13T00:07:40;20.70;1.00
843;DHT22;407;48.884;9.126;2023-07-13T00:10:06;20.60;1.00
843;DHT22;407;48.884;9.126;2023-07-13T00:12:37;20.50;1.00
843;DHT22;407;48.884;9.126;2023-07-13T00:15:06;20.40;1.00
843;DHT22;407;48.884;9.126;2023-07-13T00:17:33;20.40;1.00
843;DHT22;407;48.884;9.126;2023-07-13T00:19:58;20.30;1.00
843;DHT22;407;48.884;9.126;2023-07-13T00:22:24;20.20;1.00
843;DHT22;407;48.884;9.126;2023-07-13T00:24:53;20.20;1.00
843;DHT22;407;48.884;9.126;2023-07-13T00:27:21;20.10;1.00
843;DHT22;407;48.884;9.126;2023-07-13T00:29:47;20.10;1.00
843;DHT22;407;48.884;9.126;2023-07-13T00:32:12;20.00;1.00
843;DHT22;407;48.884;9.126;2023-07-13T00:34:38;19.90;1.00
843;DHT22;407;48.884;9.126;2023-07-13T00:37:05;19.90;1.00
843;DHT22;407;48.884;9.126;2023-07-13T00:39:34;19.90;1.00
843;DHT22;407;48.884;9.126;2023-07-13T00:42:00;19.90;1.00
843;DHT22;407;48.884;9.126;2023-07-13T00:44:26;19.90;1.00
843;DHT22;407;48.884;9.126;2023-07-13T00:46:52;19.90;1.00
843;DHT22;407;48.884;9.126;2023-07-13T00:49:24;19.90;1.00
843;DHT22;407;48.884;9.126;2023-07-13T00:51:54;19.80;1.00
843;DHT22;407;48.884;9.126;2023-07-13T00:54:26;19.80;1.00
843;DHT22;407;48.884;9.126;2023-07-13T00:56:56;19.70;1.00
843;DHT22;407;48.884;9.126;2023-07-13T00:59:23;19.70;1.00
843;DHT22;407;48.884;9.126;2023-07-13T01:01:49;19.60;1.00
843;DHT22;407;48.884;9.126;2023-07-13T01:04:16;19.70;1.00
843;DHT22;407;48.884;9.126;2023-07-13T01:06:42;19.70;1.00
843;DHT22;407;48.884;9.126;2023-07-13T01:09:09;19.60;1.00
843;DHT22;407;48.884;9.126;2023-07-13T01:11:35;19.60;1.00
843;DHT22;407;48.884;9.126;2023-07-13T01:14:02;19.60;1.00
843;DHT22;407;48.884;9.126;2023-07-13T01:16:32;19.60;1.00
843;DHT22;407;48.884;9.126;2023-07-13T01:18:59;19.70;1.00
843;DHT22;407;48.884;9.126;2023-07-13T01:21:27;19.60;1.00
843;DHT22;407;48.884;9.126;2023-07-13T01:23:53;19.70;1.00
843;DHT22;407;48.884;9.126;2023-07-13T01:26:19;19.70;1.00
843;DHT22;407;48.884;9.126;2023-07-13T01:28:44;19.60;1.00
843;DHT22;407;48.884;9.126;2023-07-13T01:31:11;19.50;1.00
843;DHT22;407;48.884;9.126;2023-07-13T01:33:39;19.60;1.00
843;DHT22;407;48.884;9.126;2023-07-13T01:36:06;19.50;1.00
843;DHT22;407;48.884;9.126;2023-07-13T01:38:33;19.50;1.00
843;DHT22;407;48.884;9.126;2023-07-13T01:40:59;19.40;1.00
843;DHT22;407;48.884;9.126;2023-07-13T01:43:24;19.50;1.00
843;DHT22;407;48.884;9.126;2023-07-13T01:45:50;19.40;1.00
843;DHT22;407;48.884;9.126;2023-07-13T01:48:16;19.20;99.90
843;DHT22;407;48.884;9.126;2023-07-13T01:50:41;19.00;99.90
843;DHT22;407;48.884;9.126;2023-07-13T01:53:07;18.90;99.90
843;DHT22;407;48.884;9.126;2023-07-13T01:55:34;18.80;1.00
843;DHT22;407;48.884;9.126;2023-07-13T01:58:01;18.70;1.00
843;DHT22;407;48.884;9.126;2023-07-13T02:00:26;18.60;1.00
843;DHT22;407;48.884;9.126;2023-07-13T02:02:52;18.60;1.00
843;DHT22;407;48.884;9.126;2023-07-13T02:05:17;18.50;1.00
843;DHT22;407;48.884;9.126;2023-07-13T02:07:43;18.40;1.00
843;DHT22;407;48.884;9.126;2023-07-13T02:10:10;18.40;1.00
843;DHT22;407;48.884;9.126;2023-07-13T02:12:37;18.30;31.10
843;DHT22;407;48.884;9.126;2023-07-13T02:15:03;18.20;99.90
843;DHT22;407;48.884;9.126;2023-07-13T02:17:29;18.20;99.90
843;DHT22;407;48.884;9.126;2023-07-13T02:19:55;18.30;99.90
843;DHT22;407;48.884;9.126;2023-07-13T02:22:21;18.20;99.90
843;DHT22;407;48.884;9.126;2023-07-13T02:24:47;18.10;1.00
843;DHT22;407;48.884;9.126;2023-07-13T02:27:13;18.00;1.00
843;DHT22;407;48.884;9.126;2023-07-13T02:29:38;17.90;99.90
843;DHT22;407;48.884;9.126;2023-07-13T02:32:04;17.90;99.90
843;DHT22;407;48.884;9.126;2023-07-13T02:34:30;18.00;99.90
843;DHT22;407;48.884;9.126;2023-07-13T02:36:56;18.00;99.90
843;DHT22;407;48.884;9.126;2023-07-13T02:39:21;18.00;99.90
843;DHT22;407;48.884;9.126;2023-07-13T02:41:47;18.00;1.00
843;DHT22;407;48.884;9.126;2023-07-13T02:44:13;17.90;99.90
843;DHT22;407;48.884;9.126;2023-07-13T02:46:39;17.90;99.90
843;DHT22;407;48.884;9.126;2023-07-13T02:49:05;17.80;1.00
843;DHT22;407;48.884;9.126;2023-07-13T02:51:31;17.70;78.00
843;DHT22;407;48.884;9.126;2023-07-13T02:54:02;17.70;99.90
843;DHT22;407;48.884;9.126;2023-07-13T02:56:29;17.60;1.00
843;DHT22;407;48.884;9.126;2023-07-13T02:58:56;17.50;1.00
843;DHT22;407;48.884;9.126;2023-07-13T03:01:22;17.60;99.90
843;DHT22;407;48.884;9.126;2023-07-13T03:03:48;17.50;99.90
843;DHT22;407;48.884;9.126;2023-07-13T03:06:15;17.50;1.00
843;DHT22;407;48.884;9.126;2023-07-13T03:08:42;17.60;1.00
843;DHT22;407;48.884;9.126;2023-07-13T03:11:14;17.70;1.00
843;DHT22;407;48.884;9.126;2023-07-13T03:13:41;17.60;1.00
843;DHT22;407;48.884;9.126;2023-07-13T03:16:08;17.70;1.00
843;DHT22;407;48.884;9.126;2023-07-13T03:18:33;17.70;22.60
843;DHT22;407;48.884;9.126;2023-07-13T03:20:59;17.70;1.00
843;DHT22;407;48.884;9.126;2023-07-13T03:23:25;17.60;1.00
843;DHT22;407;48.884;9.126;2023-07-13T03:26:05;17.60;99.90
843;DHT22;407;48.884;9.126;2023-07-13T03:28:31;17.50;99.90
843;DHT22;407;48.884;9.126;2023-07-13T03:31:06;17.40;77.70
843;DHT22;407;48.884;9.126;2023-07-13T03:33:32;17.40;99.90
843;DHT22;407;48.884;9.126;2023-07-13T03:35:58;17.30;1.00
843;DHT22;407;48.884;9.126;2023-07-13T03:38:23;17.30;1.00
843;DHT22;407;48.884;9.126;2023-07-13T03:40:49;17.30;28.50
843;DHT22;407;48.884;9.126;2023-07-13T03:43:15;17.30;5.20
843;DHT22;407;48.884;9.126;2023-07-13T03:45:40;17.40;1.00
843;DHT22;407;48.884;9.126;2023-07-13T03:48:12;17.40;1.00
843;DHT22;407;48.884;9.126;2023-07-13T03:50:38;17.50;1.00
843;DHT22;407;48.884;9.126;2023-07-13T03:53:04;17.60;99.90
843;DHT22;407;48.884;9.126;2023-07-13T03:55:29;17.60;1.00
843;DHT22;407;48.884;9.126;2023-07-13T03:58:00;17.70;1.00
843;DHT22;407;48.884;9.126;2023-07-13T04:00:26;17.80;99.90
843;DHT22;407;48.884;9.126;2023-07-13T04:02:51;17.90;1.00
843;DHT22;407;48.884;9.126;2023-07-13T04:05:20;17.90;1.00
843;DHT22;407;48.884;9.126;2023-07-13T04:07:57;18.00;99.90
843;DHT22;407;48.884;9.126;2023-07-13T04:10:22;18.10;1.00
843;DHT22;407;48.884;9.126;2023-07-13T04:12:48;18.20;99.90
843;DHT22;407;48.884;9.126;2023-07-13T04:15:14;18.20;1.00
843;DHT22;407;48.884;9.126;2023-07-13T04:17:39;18.30;99.90
843;DHT22;407;48.884;9.126;2023-07-13T04:20:05;18.30;1.00
843;DHT22;407;48.884;9.126;2023-07-13T04:22:31;18.40;1.00
843;DHT22;407;48.884;9.126;2023-07-13T04:24:56;18.30;14.90
843;DHT22;407;48.884;9.126;2023-07-13T04:27:22;18.40;1.00
843;DHT22;407;48.884;9.126;2023-07-13T04:29:47;18.40;99.90
843;DHT22;407;48.884;9.126;2023-07-13T04:32:13;18.50;99.90
843;DHT22;407;48.884;9.126;2023-07-13T04:34:38;18.60;99.90
843;DHT22;407;48.884;9.126;2023-07-13T04:37:05;18.50;1.00
843;DHT22;407;48.884;9.126;2023-07-13T04:39:30;18.50;99.90
843;DHT22;407;48.884;9.126;2023-07-13T04:41:57;18.40;99.90
843;DHT22;407;48.884;9.126;2023-07-13T04:44:23;18.30;99.90
843;DHT22;407;48.884;9.126;2023-07-13T04:46:48;18.30;1.00
843;DHT22;407;48.884;9.126;2023-07-13T04:49:14;18.10;99.90
843;DHT22;407;48.884;9.126;2023-07-13T04:51:39;18.00;99.90
843;DHT22;407;48.884;9.126;2023-07-13T04:54:05;18.10;1.00
843;DHT22;407;48.884;9.126;2023-07-13T04:56:33;18.10;23.80
843;DHT22;407;48.884;9.126;2023-07-13T04:58:58;18.20;1.00
843;DHT22;407;48.884;9.126;2023-07-13T05:01:25;18.20;99.90
843;DHT22;407;48.884;9.126;2023-07-13T05:03:50;18.10;1.00
843;DHT22;407;48.884;9.126;2023-07-13T05:06:16;18.10;1.00
843;DHT22;407;48.884;9.126;2023-07-13T05:08:41;18.20;1.00
843;DHT22;407;48.884;9.126;2023-07-13T05:11:07;18.70;1.00
843;DHT22;407;48.884;9.126;2023-07-13T05:13:33;19.40;99.90
843;DHT22;407;48.884;9.126;2023-07-13T05:16:02;19.90;1.00
843;DHT22;407;48.884;9.126;2023-07-13T05:18:29;20.00;1.00
843;DHT22;407;48.884;9.126;2023-07-13T05:21:07;20.00;1.00
843;DHT22;407;48.884;9.126;2023-07-13T05:23:34;20.10;1.00
843;DHT22;407;48.884;9.126;2023-07-13T05:26:01;19.90;1.00
843;DHT22;407;48.884;9.126;2023-07-13T05:28:27;19.60;1.00
843;DHT22;407;48.884;9.126;2023-07-13T05:30:52;19.40;16.40
843;DHT22;407;48.884;9.126;2023-07-13T05:33:19;19.30;96.90
843;DHT22;407;48.884;9.126;2023-07-13T05:35:45;19.10;99.90
843;DHT22;407;48.884;9.126;2023-07-13T05:38:11;19.10;99.90
843;DHT22;407;48.884;9.126;2023-07-13T05:40:37;19.10;99.90
843;DHT22;407;48.884;9.126;2023-07-13T05:43:03;19.10;99.90
843;DHT22;407;48.884;9.126;2023-07-13T05:45:28;19.10;99.90
843;DHT22;407;48.884;9.126;2023-07-13T05:47:54;19.30;99.90
843;DHT22;407;48.884;9.126;2023-07-13T05:50:20;19.80;99.90
843;DHT22;407;48.884;9.126;2023-07-13T05:52:45;20.00;99.90
843;DHT22;407;48.884;9.126;2023-07-13T05:55:11;20.00;69.10
843;DHT22;407;48.884;9.126;2023-07-13T05:57:36;20.00;54.30
843;DHT22;407;48.884;9.126;2023-07-13T06:00:02;20.10;36.50
843;DHT22;407;48.884;9.126;2023-07-13T06:02:28;20.20;1.00
843;DHT22;407;48.884;9.126;2023-07-13T06:04:53;20.40;4.80
843;DHT22;407;48.884;9.126;2023-07-13T06:07:19;21.30;1.00
843;DHT22;407;48.884;9.126;2023-07-13T06:09:44;22.70;1.00
843;DHT22;407;48.884;9.126;2023-07-13T06:12:10;23.70;99.90
843;DHT22;407;48.884;9.126;2023-07-13T06:14:35;24.10;99.90
843;DHT22;407;48.884;9.126;2023-07-13T06:17:01;24.60;99.90
843;DHT22;407;48.884;9.126;2023-07-13T06:19:26;24.80;99.90
843;DHT22;407;48.884;9.126;2023-07-13T06:21:52;24.50;99.90
843;DHT22;407;48.884;9.126;2023-07-13T06:24:17;24.10;99.90
843;DHT22;407;48.884;9.126;2023-07-13T06:26:43;23.90;99.90
843;DHT22;407;48.884;9.126;2023-07-13T06:29:08;24.10;99.90
843;DHT22;407;48.884;9.126;2023-07-13T06:31:34;24.10;99.90
843;DHT22;407;48.884;9.126;2023-07-13T06:33:59;24.60;99.90
843;DHT22;407;48.884;9.126;2023-07-13T06:36:25;24.60;99.90
843;DHT22;407;48.884;9.126;2023-07-13T06:38:50;24.80;99.90
843;DHT22;407;48.884;9.126;2023-07-13T06:43:43;27.60;99.90
843;DHT22;407;48.884;9.126;2023-07-13T06:46:08;27.50;99.90
843;DHT22;407;48.884;9.126;2023-07-13T06:48:34;26.80;99.90
843;DHT22;407;48.884;9.126;2023-07-13T06:51:02;26.80;99.90
843;DHT22;407;48.884;9.126;2023-07-13T06:53:28;27.40;99.90
843;DHT22;407;48.884;9.126;2023-07-13T06:55:53;27.90;99.90
843;DHT22;407;48.884;9.126;2023-07-13T06:58:19;27.90;99.90
843;DHT22;407;48.884;9.126;2023-07-13T07:00:45;27.70;99.90
843;DHT22;407;48.884;9.126;2023-07-13T07:03:11;27.60;99.90
843;DHT22;407;48.884;9.126;2023-07-13T07:05:37;27.10;99.90
843;DHT22;407;48.884;9.126;2023-07-13T07:08:02;26.60;99.90
843;DHT22;407;48.884;9.126;2023-07-13T07:10:29;26.10;99.90
843;DHT22;407;48.884;9.126;2023-07-13T07:12:55;25.70;99.90
843;DHT22;407;48.884;9.126;2023-07-13T07:15:20;26.60;99.90
843;DHT22;407;48.884;9.126;2023-07-13T07:17:46;27.70;99.90
843;DHT22;407;48.884;9.126;2023-07-13T07:20:12;28.80;99.90
843;DHT22;407;48.884;9.126;2023-07-13T07:22:37;29.50;99.90
843;DHT22;407;48.884;9.126;2023-07-13T07:25:03;30.10;99.90
843;DHT22;407;48.884;9.126;2023-07-13T07:27:29;30.80;99.90
843;DHT22;407;48.884;9.126;2023-07-13T07:29:55;30.60;99.90
843;DHT22;407;48.884;9.126;2023-07-13T07:32:20;30.90;99.90
843;DHT22;407;48.884;9.126;2023-07-13T07:34:46;31.00;99.90
843;DHT22;407;48.884;9.126;2023-07-13T07:37:13;31.10;99.90
843;DHT22;407;48.884;9.126;2023-07-13T07:39:39;31.40;99.90
843;DHT22;407;48.884;9.126;2023-07-13T07:42:05;32.40;99.90
843;DHT22;407;48.884;9.126;2023-07-13T07:44:33;33.40;99.90
843;DHT22;407;48.884;9.126;2023-07-13T07:46:59;33.80;99.90
843;DHT22;407;48.884;9.126;2023-07-13T07:49:25;34.50;99.90
843;DHT22;407;48.884;9.126;2023-07-13T07:51:50;33.80;99.90
843;DHT22;407;48.884;9.126;2023-07-13T07:54:16;33.70;99.90
843;DHT22;407;48.884;9.126;2023-07-13T07:56:41;34.20;99.90
843;DHT22;407;48.884;9.126;2023-07-13T07:59:07;34.40;99.90
843;DHT22;407;48.884;9.126;2023-07-13T08:01:33;33.70;99.90
843;DHT22;407;48.884;9.126;2023-07-13T08:03:59;32.70;99.90
843;DHT22;407;48.884;9.126;2023-07-13T08:06:24;32.40;99.90
843;DHT22;407;48.884;9.126;2023-07-13T08:08:50;32.40;99.90
843;DHT22;407;48.884;9.126;2023-07-13T08:11:17;33.00;99.90
843;DHT22;407;48.884;9.126;2023-07-13T08:13:42;33.30;99.90
843;DHT22;407;48.884;9.126;2023-07-13T08:16:08;33.10;99.90
843;DHT22;407;48.884;9.126;2023-07-13T08:18:34;32.30;99.90
843;DHT22;407;48.884;9.126;2023-07-13T08:21:04;32.60;99.90
843;DHT22;407;48.884;9.126;2023-07-13T08:23:30;32.40;99.90
843;DHT22;407;48.884;9.126;2023-07-13T08:25:55;32.20;99.90
843;DHT22;407;48.884;9.126;2023-07-13T08:28:22;32.30;99.90
843;DHT22;407;48.884;9.126;2023-07-13T08:30:48;32.00;99.90
843;DHT22;407;48.884;9.126;2023-07-13T08:33:18;32.80;99.90
843;DHT22;407;48.884;9.126;2023-07-13T08:35:48;33.90;99.90
843;DHT22;407;48.884;9.126;2023-07-13T08:38:14;33.90;99.90
843;DHT22;407;48.884;9.126;2023-07-13T08:40:41;34.10;99.90
843;DHT22;407;48.884;9.126;2023-07-13T08:43:15;34.20;99.90
843;DHT22;407;48.884;9.126;2023-07-13T08:45:43;34.80;99.90
843;DHT22;407;48.884;9.126;2023-07-13T08:48:15;34.80;99.90
843;DHT22;407;48.884;9.126;2023-07-13T08:51:38;33.70;99.90
843;DHT22;407;48.884;9.126;2023-07-13T08:53:47;34.70;99.90
843;DHT22;407;48.884;9.126;2023-07-13T08:56:24;34.80;99.90
843;DHT22;407;48.884;9.126;2023-07-13T08:58:57;35.40;99.90
843;DHT22;407;48.884;9.126;2023-07-13T09:01:52;35.70;99.90
843;DHT22;407;48.884;9.126;2023-07-13T09:04:27;35.60;99.90
843;DHT22;407;48.884;9.126;2023-07-13T09:07:14;36.10;99.90
843;DHT22;407;48.884;9.126;2023-07-13T09:09:55;35.20;99.90
843;DHT22;407;48.884;9.126;2023-07-13T09:14:58;34.40;99.90
843;DHT22;407;48.884;9.126;2023-07-13T09:17:31;33.50;99.90
843;DHT22;407;48.884;9.126;2023-07-13T09:20:10;34.40;99.90
843;DHT22;407;48.884;9.126;2023-07-13T09:22:38;34.30;99.90
843;DHT22;407;48.884;9.126;2023-07-13T09:25:18;34.10;99.90
843;DHT22;407;48.884;9.126;2023-07-13T09:27:47;34.90;99.90
843;DHT22;407;48.884;9.126;2023-07-13T09:32:43;34.40;99.90
843;DHT22;407;48.884;9.126;2023-07-13T09:35:16;35.20;99.90
843;DHT22;407;48.884;9.126;2023-07-13T09:37:46;36.10;99.90
843;DHT22;407;48.884;9.126;2023-07-13T09:40:28;36.50;99.90
843;DHT22;407;48.884;9.126;2023-07-13T09:42:56;36.10;99.90
843;DHT22;407;48.884;9.126;2023-07-13T09:45:29;34.00;99.90
843;DHT22;407;48.884;9.126;2023-07-13T09:48:12;33.50;99.90
843;DHT22;407;48.884;9.126;2023-07-13T09:50:39;34.70;99.90
843;DHT22;407;48.884;9.126;2023-07-13T09:53:12;34.80;99.90
843;DHT22;407;48.884;9.126;2023-07-13T09:55:39;34.10;99.90
843;DHT22;407;48.884;9.126;2023-07-13T10:00:36;34.90;99.90
843;DHT22;407;48.884;9.126;2023-07-13T10:03:17;34.90;99.90
843;DHT22;407;48.884;9.126;2023-07-13T10:05:45;35.20;99.90
843;DHT22;407;48.884;9.126;2023-07-13T10:08:25;36.10;99.90
843;DHT22;407;48.884;9.126;2023-07-13T10:10:57;36.30;99.90
843;DHT22;407;48.884;9.126;2023-07-13T10:15:51;33.90;99.90
843;DHT22;407;48.884;9.126;2023-07-13T10:18:17;33.40;99.90
843;DHT22;407;48.884;9.126;2023-07-13T10:20:43;32.40;99.90
843;DHT22;407;48.884;9.126;2023-07-13T10:23:15;31.20;99.90
843;DHT22;407;48.884;9.126;2023-07-13T10:25:46;31.10;99.90
843;DHT22;407;48.884;9.126;2023-07-13T10:28:27;32.20;99.90
843;DHT22;407;48.884;9.126;2023-07-13T10:30:56;32.70;99.90
843;DHT22;407;48.884;9.126;2023-07-13T10:33:23;31.50;99.90
843;DHT22;407;48.884;9.126;2023-07-13T10:35:52;30.20;99.90
843;DHT22;407;48.884;9.126;2023-07-13T10:38:21;29.50;99.90
843;DHT22;407;48.884;9.126;2023-07-13T10:41:01;30.00;99.90
843;DHT22;407;48.884;9.126;2023-07-13T10:43:33;30.40;99.90
843;DHT22;407;48.884;9.126;2023-07-13T10:46:02;29.50;99.90
843;DHT22;407;48.884;9.126;2023-07-13T10:48:29;29.60;99.90
843;DHT22;407;48.884;9.126;2023-07-13T10:50:58;29.30;99.90
843;DHT22;407;48.884;9.126;2023-07-13T10:53:34;29.30;99.90
843;DHT22;407;48.884;9.126;2023-07-13T10:56:18;29.10;99.90
843;DHT22;407;48.884;9.126;2023-07-13T10:58:45;29.00;99.90
843;DHT22;407;48.884;9.126;2023-07-13T11:01:16;29.40;99.90
843;DHT22;407;48.884;9.126;2023-07-13T11:03:50;29.30;99.90
843;DHT22;407;48.884;9.126;2023-07-13T11:08:57;28.90;99.90
843;DHT22;407;48.884;9.126;2023-07-13T11:21:33;28.10;99.90
843;DHT22;407;48.884;9.126;2023-07-13T11:31:59;29.80;99.90
843;DHT22;407;48.884;9.126;2023-07-13T11:34:33;29.60;99.90
843;DHT22;407;48.884;9.126;2023-07-13T11:37:00;29.40;99.90
843;DHT22;407;48.884;9.126;2023-07-13T11:39:36;29.20;99.90
843;DHT22;407;48.884;9.126;2023-07-13T11:42:05;29.50;99.90
843;DHT22;407;48.884;9.126;2023-07-13T11:44:34;29.30;99.90
843;DHT22;407;48.884;9.126;2023-07-13T11:47:11;29.40;99.90
843;DHT22;407;48.884;9.126;2023-07-13T11:49:52;29.80;99.90
843;DHT22;407;48.884;9.126;2023-07-13T11:52:22;29.40;99.90
843;DHT22;407;48.884;9.126;2023-07-13T11:54:52;28.90;99.90
843;DHT22;407;48.884;9.126;2023-07-13T11:57:25;28.60;99.90
843;DHT22;407;48.884;9.126;2023-07-13T11:59:52;28.70;99.90
843;DHT22;407;48.884;9.126;2023-07-13T12:02:29;28.40;99.90
843;DHT22;407;48.884;9.126;2023-07-13T12:04:56;28.60;99.90
843;DHT22;407;48.884;9.126;2023-07-13T12:07:22;28.80;99.90
843;DHT22;407;48.884;9.126;2023-07-13T12:09:48;29.00;99.90
843;DHT22;407;48.884;9.126;2023-07-13T12:12:21;29.50;99.90
843;DHT22;407;48.884;9.126;2023-07-13T12:14:51;29.30;99.90
843;DHT22;407;48.884;9.126;2023-07-13T12:17:22;29.50;99.90
843;DHT22;407;48.884;9.126;2023-07-13T12:19:49;29.70;99.90
843;DHT22;407;48.884;9.126;2023-07-13T12:22:17;29.10;99.90
843;DHT22;407;48.884;9.126;2023-07-13T12:24:43;28.90;99.90
843;DHT22;407;48.884;9.126;2023-07-13T12:27:39;28.90;99.90
843;DHT22;407;48.884;9.126;2023-07-13T12:30:28;29.30;99.90
843;DHT22;407;48.884;9.126;2023-07-13T12:33:00;29.20;99.90
843;DHT22;407;48.884;9.126;2023-07-13T12:35:29;28.70;99.90
843;DHT22;407;48.884;9.126;2023-07-13T12:37:57;28.80;99.90
843;DHT22;407;48.884;9.126;2023-07-13T12:40:32;29.00;99.90
843;DHT22;407;48.884;9.126;2023-07-13T12:42:58;28.60;99.90
843;DHT22;407;48.884;9.126;2023-07-13T12:45:26;28.30;99.90
843;DHT22;407;48.884;9.126;2023-07-13T12:48:05;28.40;99.90
843;DHT22;407;48.884;9.126;2023-07-13T12:50:41;28.20;99.90
843;DHT22;407;48.884;9.126;2023-07-13T12:53:14;28.40;99.90
843;DHT22;407;48.884;9.126;2023-07-13T12:55:48;28.80;99.90
843;DHT22;407;48.884;9.126;2023-07-13T12:58:26;28.90;99.90
843;DHT22;407;48.884;9.126;2023-07-13T13:00:55;28.20;99.90
843;DHT22;407;48.884;9.126;2023-07-13T13:03:46;28.30;99.90
843;DHT22;407;48.884;9.126;2023-07-13T13:08:40;28.30;99.90
843;DHT22;407;48.884;9.126;2023-07-13T13:11:08;28.80;99.90
843;DHT22;407;48.884;9.126;2023-07-13T13:13:34;29.10;99.90
843;DHT22;407;48.884;9.126;2023-07-13T13:16:32;28.80;99.90
843;DHT22;407;48.884;9.126;2023-07-13T13:19:45;28.60;99.90
843;DHT22;407;48.884;9.126;2023-07-13T13:21:47;28.40;99.90
843;DHT22;407;48.884;9.126;2023-07-13T13:24:27;28.30;99.90
843;DHT22;407;48.884;9.126;2023-07-13T13:26:53;28.50;99.90
843;DHT22;407;48.884;9.126;2023-07-13T13:29:21;29.10;99.90
843;DHT22;407;48.884;9.126;2023-07-13T13:31:47;29.20;99.90
843;DHT22;407;48.884;9.126;2023-07-13T13:34:14;29.00;99.90
843;DHT22;407;48.884;9.126;2023-07-13T13:36:41;29.30;99.90
843;DHT22;407;48.884;9.126;2023-07-13T13:39:24;29.10;99.90
843;DHT22;407;48.884;9.126;2023-07-13T13:41:52;28.70;99.90
843;DHT22;407;48.884;9.126;2023-07-13T13:44:19;29.00;99.90
843;DHT22;407;48.884;9.126;2023-07-13T13:46:48;29.10;99.90
843;DHT22;407;48.884;9.126;2023-07-13T13:49:17;28.90;99.90
843;DHT22;407;48.884;9.126;2023-07-13T13:51:44;28.90;99.90
843;DHT22;407;48.884;9.126;2023-07-13T13:54:14;28.10;99.90
843;DHT22;407;48.884;9.126;2023-07-13T13:56:46;27.70;99.90
843;DHT22;407;48.884;9.126;2023-07-13T13:59:12;27.80;99.90
843;DHT22;407;48.884;9.126;2023-07-13T14:01:38;27.90;99.90
843;DHT22;407;48.884;9.126;2023-07-13T14:04:04;28.10;99.90
843;DHT22;407;48.884;9.126;2023-07-13T14:06:31;28.40;99.90
843;DHT22;407;48.884;9.126;2023-07-13T14:08:57;28.80;99.90
843;DHT22;407;48.884;9.126;2023-07-13T14:11:23;28.80;99.90
843;DHT22;407;48.884;9.126;2023-07-13T14:13:56;28.60;99.90
843;DHT22;407;48.884;9.126;2023-07-13T14:16:26;28.60;99.90
843;DHT22;407;48.884;9.126;2023-07-13T14:18:53;28.90;99.90
843;DHT22;407;48.884;9.126;2023-07-13T14:21:21;29.00;99.90
843;DHT22;407;48.884;9.126;2023-07-13T14:23:48;28.50;99.90
843;DHT22;407;48.884;9.126;2023-07-13T14:26:18;28.10;99.90
843;DHT22;407;48.884;9.126;2023-07-13T14:28:47;28.10;99.90
843;DHT22;407;48.884;9.126;2023-07-13T14:31:14;28.40;99.90
843;DHT22;407;48.884;9.126;2023-07-13T14:33:41;28.20;99.90
843;DHT22;407;48.884;9.126;2023-07-13T14:36:29;28.20;99.90
843;DHT22;407;48.884;9.126;2023-07-13T14:38:56;28.10;99.90
843;DHT22;407;48.884;9.126;2023-07-13T14:41:22;28.10;99.90
843;DHT22;407;48.884;9.126;2023-07-13T14:43:48;28.10;99.90
843;DHT22;407;48.884;9.126;2023-07-13T14:46:34;28.10;99.90
843;DHT22;407;48.884;9.126;2023-07-13T14:49:06;27.90;99.90
843;DHT22;407;48.884;9.126;2023-07-13T14:51:33;27.90;99.90
843;DHT22;407;48.884;9.126;2023-07-13T14:54:03;28.10;99.90
843;DHT22;407;48.884;9.126;2023-07-13T14:56:29;27.90;99.90
843;DHT22;407;48.884;9.126;2023-07-13T14:58:54;27.80;99.90
843;DHT22;407;48.884;9.126;2023-07-13T15:01:20;27.70;99.90
843;DHT22;407;48.884;9.126;2023-07-13T15:03:49;27.60;99.90
843;DHT22;407;48.884;9.126;2023-07-13T15:06:16;27.20;99.90
843;DHT22;407;48.884;9.126;2023-07-13T15:08:41;27.30;99.90
843;DHT22;407;48.884;9.126;2023-07-13T15:11:08;27.40;99.90
843;DHT22;407;48.884;9.126;2023-07-13T15:13:34;27.50;99.90
843;DHT22;407;48.884;9.126;2023-07-13T15:16:01;27.40;99.90
843;DHT22;407;48.884;9.126;2023-07-13T15:18:26;27.60;99.90
843;DHT22;407;48.884;9.126;2023-07-13T15:20:53;27.20;99.90
843;DHT22;407;48.884;9.126;2023-07-13T15:23:22;27.20;99.90
843;DHT22;407;48.884;9.126;2023-07-13T15:25:49;27.10;99.90
843;DHT22;407;48.884;9.126;2023-07-13T15:28:15;27.10;99.90
843;DHT22;407;48.884;9.126;2023-07-13T15:33:34;27.30;99.90
843;DHT22;407;48.884;9.126;2023-07-13T15:35:59;27.10;99.90
843;DHT22;407;48.884;9.126;2023-07-13T15:38:31;27.10;99.90
843;DHT22;407;48.884;9.126;2023-07-13T15:40:58;27.10;99.90
843;DHT22;407;48.884;9.126;2023-07-13T15:43:25;27.20;99.90
843;DHT22;407;48.884;9.126;2023-07-13T15:45:51;27.40;99.90
843;DHT22;407;48.884;9.126;2023-07-13T15:48:19;27.50;99.90
843;DHT22;407;48.884;9.126;2023-07-13T15:50:48;27.60;99.90
843;DHT22;407;48.884;9.126;2023-07-13T15:53:18;27.50;99.90
843;DHT22;407;48.884;9.126;2023-07-13T15:55:44;27.50;99.90
843;DHT22;407;48.884;9.126;2023-07-13T15:58:11;27.70;99.90
843;DHT22;407;48.884;9.126;2023-07-13T16:00:37;27.90;99.90
843;DHT22;407;48.884;9.126;2023-07-13T16:03:03;27.70;99.90
843;DHT22;407;48.884;9.126;2023-07-13T16:05:30;27.60;99.90
843;DHT22;407;48.884;9.126;2023-07-13T16:07:56;27.30;99.90
843;DHT22;407;48.884;9.126;2023-07-13T16:10:30;27.30;99.90
843;DHT22;407;48.884;9.126;2023-07-13T16:12:57;27.10;99.90
843;DHT22;407;48.884;9.126;2023-07-13T16:15:24;26.90;99.90
843;DHT22;407;48.884;9.126;2023-07-13T16:17:50;26.70;99.90
843;DHT22;407;48.884;9.126;2023-07-13T16:20:17;26.60;99.90
843;DHT22;407;48.884;9.126;2023-07-13T16:22:49;26.60;99.90
843;DHT22;407;48.884;9.126;2023-07-13T16:25:19;26.80;99.90
843;DHT22;407;48.884;9.126;2023-07-13T16:27:48;26.80;99.90
843;DHT22;407;48.884;9.126;2023-07-13T16:30:23;26.50;99.90
843;DHT22;407;48.884;9.126;2023-07-13T16:32:50;26.20;99.90
843;DHT22;407;48.884;9.126;2023-07-13T16:35:18;26.30;99.90
843;DHT22;407;48.884;9.126;2023-07-13T16:37:43;26.40;99.90
843;DHT22;407;48.884;9.126;2023-07-13T16:40:21;26.70;99.90
843;DHT22;407;48.884;9.126;2023-07-13T16:42:52;26.80;99.90
843;DHT22;407;48.884;9.126;2023-07-13T16:45:24;26.60;99.90
843;DHT22;407;48.884;9.126;2023-07-13T16:47:54;26.40;99.90
843;DHT22;407;48.884;9.126;2023-07-13T16:50:24;26.50;99.90
843;DHT22;407;48.884;9.126;2023-07-13T16:52:51;26.20;99.90
843;DHT22;407;48.884;9.126;2023-07-13T16:55:19;26.30;99.90
843;DHT22;407;48.884;9.126;2023-07-13T16:58:00;26.20;99.90
843;DHT22;407;48.884;9.126;2023-07-13T17:00:32;26.00;99.90
843;DHT22;407;48.884;9.126;2023-07-13T17:03:00;26.10;99.90
843;DHT22;407;48.884;9.126;2023-07-13T17:05:35;26.10;99.90
843;DHT22;407;48.884;9.126;2023-07-13T17:10:35;26.00;99.90
843;DHT22;407;48.884;9.126;2023-07-13T17:13:01;26.20;99.90
843;DHT22;407;48.884;9.126;2023-07-13T17:15:27;26.30;99.90
843;DHT22;407;48.884;9.126;2023-07-13T17:17:54;26.10;99.90
843;DHT22;407;48.884;9.126;2023-07-13T17:20:32;26.00;99.90
843;DHT22;407;48.884;9.126;2023-07-13T17:23:03;26.00;99.90
843;DHT22;407;48.884;9.126;2023-07-13T17:25:30;26.00;99.90
843;DHT22;407;48.884;9.126;2023-07-13T17:27:56;26.10;99.90